createdAt,value
2019-03-19T00:00:16.618Z,3.10
2019-03-19T00:02:45.198Z,3.10
2019-03-19T00:05:14.097Z,3.10
2019-03-19T00:07:44.150Z,3.10
2019-03-19T00:10:13.629Z,3.10
2019-03-19T00:12:43.877Z,3.10
2019-03-19T00:15:15.388Z,3.10
2019-03-19T00:17:45.651Z,3.10
2019-03-19T00:20:16.766Z,3.10
2019-03-19T00:22:46.175Z,3.10
2019-03-19T00:25:14.881Z,3.20
2019-03-19T00:27:44.138Z,3.10
2019-03-19T00:30:16.828Z,3.10
2019-03-19T00:32:46.393Z,3.10
2019-03-19T00:35:16.185Z,3.10
2019-03-19T00:37:44.803Z,3.10
2019-03-19T00:40:20.529Z,3.10
2019-03-19T00:42:49.725Z,3.00
2019-03-19T00:45:18.163Z,3.00
2019-03-19T00:47:46.692Z,3.00
2019-03-19T00:50:16.091Z,3.00
2019-03-19T00:52:45.284Z,2.90
2019-03-19T00:55:14.486Z,2.90
2019-03-19T00:57:43.386Z,2.90
2019-03-19T01:00:19.239Z,2.80
2019-03-19T01:02:47.666Z,2.80
2019-03-19T01:05:16.199Z,2.80
2019-03-19T01:07:45.480Z,2.80
2019-03-19T01:10:17.462Z,2.70
2019-03-19T01:12:50.938Z,2.60
2019-03-19T01:15:20.195Z,2.60
2019-03-19T01:17:48.644Z,2.50
2019-03-19T01:20:17.360Z,2.40
2019-03-19T01:22:45.785Z,2.40
2019-03-19T01:25:15.864Z,2.30
2019-03-19T01:27:45.514Z,2.10
2019-03-19T01:30:16.187Z,2.00
2019-03-19T01:32:45.479Z,2.00
2019-03-19T01:35:16.414Z,1.90
2019-03-19T01:37:48.282Z,1.90
2019-03-19T01:40:16.761Z,1.90
2019-03-19T01:42:45.348Z,1.80
2019-03-19T01:45:16.055Z,1.80
2019-03-19T01:47:45.804Z,1.70
2019-03-19T01:50:15.436Z,1.70
2019-03-19T01:52:44.825Z,1.50
2019-03-19T01:55:15.556Z,1.40
2019-03-19T01:57:44.987Z,1.40
2019-03-19T02:00:17.906Z,1.30
2019-03-19T02:02:46.409Z,1.20
2019-03-19T02:05:15.605Z,1.20
2019-03-19T02:07:44.676Z,1.20
2019-03-19T02:10:15.390Z,1.10
2019-03-19T02:12:44.922Z,1.00
2019-03-19T02:15:17.499Z,0.90
2019-03-19T02:17:45.985Z,0.90
2019-03-19T02:20:18.583Z,0.90
2019-03-19T02:22:47.112Z,0.80
2019-03-19T02:25:16.130Z,0.80
2019-03-19T02:27:45.340Z,0.80
2019-03-19T02:30:16.367Z,0.70
2019-03-19T02:32:45.139Z,0.70
2019-03-19T02:35:14.563Z,0.70
2019-03-19T02:37:43.844Z,0.70
2019-03-19T02:40:18.822Z,0.60
2019-03-19T02:42:47.268Z,0.60
2019-03-19T02:45:16.158Z,0.50
2019-03-19T02:47:45.103Z,0.50
2019-03-19T02:50:17.750Z,0.50
2019-03-19T02:52:46.814Z,0.40
2019-03-19T02:55:15.534Z,0.40
2019-03-19T02:57:45.959Z,0.30
2019-03-19T03:00:18.545Z,0.30
2019-03-19T03:02:47.078Z,0.20
2019-03-19T03:05:18.453Z,0.20
2019-03-19T03:07:46.929Z,0.20
2019-03-19T03:10:19.474Z,0.20
2019-03-19T03:12:48.057Z,0.10
2019-03-19T03:15:16.662Z,0.20
2019-03-19T03:17:45.600Z,0.20
2019-03-19T03:20:16.411Z,0.20
2019-03-19T03:22:49.880Z,0.20
2019-03-19T03:25:19.233Z,0.10
2019-03-19T03:27:47.710Z,0.10
2019-03-19T03:30:23.480Z,0.10
2019-03-19T03:32:52.484Z,0.10
2019-03-19T03:35:21.185Z,0.20
2019-03-19T03:37:49.657Z,0.20
2019-03-19T03:40:19.447Z,0.30
2019-03-19T03:42:47.976Z,0.30
2019-03-19T03:45:20.156Z,0.40
2019-03-19T03:47:48.732Z,0.50
2019-03-19T03:50:20.275Z,0.50
2019-03-19T03:52:48.774Z,0.50
2019-03-19T03:55:19.097Z,0.60
2019-03-19T03:57:47.595Z,0.70
2019-03-19T04:00:19.896Z,0.70
2019-03-19T04:02:48.325Z,0.80
2019-03-19T04:05:16.921Z,0.80
2019-03-19T04:07:45.361Z,0.90
2019-03-19T04:10:18.359Z,0.90
2019-03-19T04:12:46.902Z,0.90
2019-03-19T04:15:16.410Z,0.90
2019-03-19T04:17:45.315Z,0.90
2019-03-19T04:20:16.133Z,1.00
2019-03-19T04:22:44.875Z,1.00
2019-03-19T04:25:14.335Z,1.00
2019-03-19T04:27:52.409Z,1.00
2019-03-19T04:30:21.628Z,1.00
2019-03-19T04:32:50.088Z,1.00
2019-03-19T04:35:19.497Z,1.00
2019-03-19T04:37:48.029Z,0.90
2019-03-19T04:40:17.452Z,0.90
2019-03-19T04:42:45.930Z,0.90
2019-03-19T04:45:18.732Z,0.80
2019-03-19T04:47:47.384Z,0.80
2019-03-19T04:50:18.562Z,0.80
2019-03-19T04:52:47.089Z,0.80
2019-03-19T04:55:16.498Z,0.80
2019-03-19T04:58:11.504Z,0.80
2019-03-19T05:00:43.500Z,0.70
2019-03-19T05:03:14.374Z,0.70
2019-03-19T05:05:44.731Z,0.80
2019-03-19T05:08:17.697Z,0.80
2019-03-19T05:10:50.205Z,0.80
2019-03-19T05:24:22.624Z,0.70
2019-03-19T05:26:51.075Z,0.80
2019-03-19T05:29:19.521Z,0.80
2019-03-19T05:31:47.977Z,0.70
2019-03-19T05:34:16.712Z,0.70
2019-03-19T05:36:45.294Z,0.70
2019-03-19T05:39:15.796Z,0.70
2019-03-19T05:41:44.577Z,0.70
2019-03-19T05:44:15.585Z,0.60
2019-03-19T05:46:46.231Z,0.60
2019-03-19T05:49:15.583Z,0.60
2019-03-19T05:51:44.890Z,0.60
2019-03-19T05:54:15.502Z,0.60
2019-03-19T05:56:44.600Z,0.60
2019-03-19T05:59:15.556Z,0.70
2019-03-19T06:01:45.252Z,0.70
2019-03-19T06:04:15.701Z,0.70
2019-03-19T06:06:46.415Z,0.70
2019-03-19T06:09:16.044Z,0.80
2019-03-19T06:11:47.458Z,0.70
2019-03-19T06:14:16.916Z,0.80
2019-03-19T06:16:46.510Z,0.80
2019-03-19T06:19:18.331Z,0.80
2019-03-19T06:21:46.773Z,0.80
2019-03-19T06:24:17.315Z,0.80
2019-03-19T06:26:51.396Z,0.90
2019-03-19T06:29:24.625Z,0.90
2019-03-19T06:31:53.074Z,0.80
2019-03-19T06:34:25.986Z,0.90
2019-03-19T06:36:54.509Z,0.90
2019-03-19T06:39:23.039Z,0.90
2019-03-19T06:41:53.440Z,1.00
2019-03-19T06:44:21.872Z,1.10
2019-03-19T06:46:50.394Z,1.10
2019-03-19T06:49:18.813Z,1.20
2019-03-19T06:51:47.264Z,1.30
2019-03-19T06:54:16.822Z,1.40
2019-03-19T06:56:45.383Z,1.50
2019-03-19T06:59:18.817Z,1.50
2019-03-19T07:01:47.266Z,1.60
2019-03-19T07:04:16.095Z,1.60
2019-03-19T07:06:53.508Z,1.70
2019-03-19T07:09:21.953Z,1.90
2019-03-19T07:11:50.470Z,2.00
2019-03-19T07:14:19.365Z,2.50
2019-03-19T07:16:48.476Z,2.90
2019-03-19T07:19:18.456Z,3.40
2019-03-19T07:21:49.274Z,3.50
2019-03-19T07:24:19.475Z,3.60
2019-03-19T07:26:49.977Z,3.60
2019-03-19T07:29:21.481Z,3.60
2019-03-19T07:31:50.403Z,3.80
2019-03-19T07:34:18.905Z,4.50
2019-03-19T07:36:50.140Z,4.70
2019-03-19T07:39:18.596Z,4.40
2019-03-19T07:41:47.102Z,4.90
2019-03-19T07:44:16.405Z,5.60
2019-03-19T07:46:46.126Z,6.30
2019-03-19T07:49:14.774Z,6.40
2019-03-19T07:51:43.935Z,6.50
2019-03-19T07:54:14.541Z,6.00
2019-03-19T07:56:45.596Z,5.70
2019-03-19T07:59:15.460Z,5.40
2019-03-19T08:01:45.878Z,5.30
2019-03-19T08:04:15.671Z,5.30
2019-03-19T08:06:44.806Z,6.40
2019-03-19T08:09:14.091Z,6.80
2019-03-19T08:11:46.078Z,7.00
2019-03-19T08:14:15.901Z,6.40
2019-03-19T08:16:46.756Z,6.70
2019-03-19T08:19:15.676Z,7.30
2019-03-19T08:21:44.148Z,7.60
2019-03-19T08:24:12.968Z,7.50
2019-03-19T08:26:41.919Z,7.60
2019-03-19T08:29:10.687Z,8.10
2019-03-19T08:31:39.318Z,8.30
2019-03-19T08:34:08.561Z,8.30
2019-03-19T08:36:39.290Z,8.40
2019-03-19T08:39:12.714Z,8.80
2019-03-19T08:41:41.884Z,9.10
2019-03-19T08:44:12.170Z,9.10
2019-03-19T08:46:41.043Z,9.10
2019-03-19T08:49:09.892Z,9.10
2019-03-19T08:51:38.642Z,9.00
2019-03-19T08:54:08.193Z,8.80
2019-03-19T08:56:38.712Z,8.50
2019-03-19T08:59:07.632Z,8.30
2019-03-19T09:01:37.417Z,8.90
2019-03-19T09:04:06.529Z,9.50
2019-03-19T09:06:35.751Z,9.50
2019-03-19T09:09:07.221Z,9.60
2019-03-19T09:11:36.711Z,9.90
2019-03-19T09:14:05.886Z,10.10
2019-03-19T09:16:36.177Z,10.20
2019-03-19T09:19:05.762Z,10.20
2019-03-19T09:21:35.221Z,10.00
2019-03-19T09:24:06.398Z,10.00
2019-03-19T09:26:35.333Z,9.90
2019-03-19T09:29:04.616Z,9.90
2019-03-19T09:31:34.038Z,10.00
2019-03-19T09:34:03.390Z,10.10
2019-03-19T09:36:35.967Z,9.80
2019-03-19T09:39:07.661Z,9.90
2019-03-19T09:41:36.787Z,9.90
2019-03-19T09:44:06.127Z,10.20
2019-03-19T09:46:39.434Z,10.30
2019-03-19T09:49:09.549Z,10.00
2019-03-19T09:51:38.728Z,10.10
2019-03-19T09:54:08.741Z,9.90
2019-03-19T09:56:38.297Z,10.30
2019-03-19T09:59:07.388Z,10.20
2019-03-19T10:01:36.243Z,9.70
2019-03-19T10:04:05.089Z,9.10
2019-03-19T10:06:35.542Z,9.20
2019-03-19T10:09:07.311Z,9.80
2019-03-19T10:11:38.727Z,10.90
2019-03-19T10:14:07.475Z,10.90
2019-03-19T10:16:38.030Z,10.10
2019-03-19T10:19:07.384Z,9.90
2019-03-19T10:21:39.243Z,9.90
2019-03-19T10:24:08.650Z,10.70
2019-03-19T10:26:38.044Z,10.60
2019-03-19T10:29:07.749Z,11.00
2019-03-19T10:31:38.948Z,10.80
2019-03-19T10:34:08.188Z,11.50
2019-03-19T10:36:38.268Z,11.00
2019-03-19T10:39:09.437Z,10.90
2019-03-19T10:41:38.692Z,11.20
2019-03-19T10:44:08.289Z,11.10
2019-03-19T10:46:37.903Z,10.30
2019-03-19T10:49:07.892Z,10.90
2019-03-19T10:51:36.613Z,11.40
2019-03-19T10:54:05.550Z,11.40
2019-03-19T10:56:38.877Z,10.90
2019-03-19T10:59:08.191Z,10.80
2019-03-19T11:01:38.920Z,10.90
2019-03-19T11:04:08.166Z,10.90
2019-03-19T11:06:38.252Z,10.80
2019-03-19T11:09:08.446Z,10.00
2019-03-19T11:11:37.012Z,9.60
2019-03-19T11:14:06.067Z,9.60
2019-03-19T11:16:34.972Z,9.70
2019-03-19T11:19:03.943Z,10.00
2019-03-19T11:21:34.830Z,10.20
2019-03-19T11:24:08.810Z,10.30
2019-03-19T11:26:37.587Z,9.50
2019-03-19T11:29:06.344Z,9.50
2019-03-19T11:31:36.183Z,9.70
2019-03-19T11:34:05.476Z,9.90
2019-03-19T11:36:37.259Z,10.20
2019-03-19T11:39:08.037Z,10.00
2019-03-19T11:41:37.005Z,9.60
2019-03-19T11:44:25.757Z,9.40
2019-03-19T11:46:54.349Z,9.30
2019-03-19T11:49:22.935Z,9.20
2019-03-19T11:51:51.354Z,9.00
2019-03-19T11:54:19.783Z,8.90
2019-03-19T11:56:48.237Z,8.90
2019-03-19T11:59:16.663Z,8.90
2019-03-19T12:01:45.095Z,8.90
2019-03-19T12:04:14.219Z,9.00
2019-03-19T12:06:42.824Z,9.00
2019-03-19T12:09:11.332Z,8.90
2019-03-19T12:11:40.018Z,8.80
2019-03-19T12:14:10.389Z,8.60
2019-03-19T12:16:39.422Z,8.50
2019-03-19T12:19:08.213Z,8.60
2019-03-19T12:21:37.149Z,8.70
2019-03-19T12:24:06.819Z,8.70
2019-03-19T12:26:37.736Z,8.90
2019-03-19T12:29:06.819Z,9.00
2019-03-19T12:31:36.046Z,9.20
2019-03-19T12:34:05.269Z,9.40
2019-03-19T12:36:34.246Z,9.60
2019-03-19T12:39:03.285Z,9.70
2019-03-19T12:41:32.561Z,9.70
2019-03-19T12:44:00.952Z,9.70
2019-03-19T12:46:29.570Z,9.40
2019-03-19T12:48:58.305Z,9.50
2019-03-19T12:51:27.364Z,9.40
2019-03-19T12:53:55.833Z,9.40
2019-03-19T12:56:24.289Z,9.60
2019-03-19T12:58:52.774Z,9.70
2019-03-19T13:01:21.295Z,9.90
2019-03-19T13:03:49.804Z,10.00
2019-03-19T13:06:18.227Z,10.20
2019-03-19T13:08:46.707Z,10.30
2019-03-19T13:11:15.175Z,10.10
2019-03-19T13:13:43.785Z,10.10
2019-03-19T13:16:12.389Z,10.30
2019-03-19T13:18:41.099Z,10.10
2019-03-19T13:21:09.854Z,10.00
2019-03-19T13:23:38.637Z,10.10
2019-03-19T13:26:07.902Z,10.20
2019-03-19T13:28:37.535Z,10.30
2019-03-19T13:31:06.510Z,10.30
2019-03-19T13:33:35.475Z,10.40
2019-03-19T13:36:04.812Z,10.30
2019-03-19T13:38:33.899Z,10.30
2019-03-19T13:41:02.896Z,10.20
2019-03-19T13:43:33.722Z,10.10
2019-03-19T13:46:02.635Z,10.30
2019-03-19T13:48:31.601Z,10.20
2019-03-19T13:51:00.278Z,10.10
2019-03-19T13:53:28.852Z,10.10
2019-03-19T13:55:57.569Z,10.10
2019-03-19T13:58:27.296Z,10.10
2019-03-19T14:00:56.109Z,10.20
2019-03-19T14:03:24.604Z,10.40
2019-03-19T14:05:53.047Z,10.40
2019-03-19T14:08:21.620Z,10.40
2019-03-19T14:10:50.040Z,10.40
2019-03-19T14:13:18.508Z,10.20
2019-03-19T14:15:46.928Z,10.00
2019-03-19T14:18:15.385Z,10.00
2019-03-19T14:20:58.860Z,10.00
2019-03-19T14:23:38.417Z,10.10
2019-03-19T14:26:07.807Z,9.90
2019-03-19T14:28:37.134Z,9.90
2019-03-19T14:31:08.950Z,10.20
2019-03-19T14:33:37.129Z,10.20
2019-03-19T14:36:06.745Z,10.20
2019-03-19T14:38:46.497Z,10.20
2019-03-19T14:41:06.575Z,10.30
2019-03-19T14:43:35.805Z,10.30
2019-03-19T14:46:06.600Z,10.20
2019-03-19T14:48:35.693Z,10.00
2019-03-19T14:51:05.251Z,10.00
2019-03-19T14:53:35.797Z,10.10
2019-03-19T14:56:04.605Z,10.20
2019-03-19T14:58:33.847Z,10.20
2019-03-19T15:01:03.146Z,10.30
2019-03-19T15:03:32.314Z,10.40
2019-03-19T15:06:00.755Z,10.30
2019-03-19T15:08:29.309Z,10.20
2019-03-19T15:10:57.923Z,10.30
2019-03-19T15:13:26.823Z,10.30
2019-03-19T15:15:55.435Z,10.30
2019-03-19T15:18:24.776Z,10.30
2019-03-19T15:20:53.395Z,10.30
2019-03-19T15:23:23.433Z,10.30
2019-03-19T15:25:51.943Z,10.30
2019-03-19T15:28:20.377Z,10.30
2019-03-19T15:30:48.792Z,10.30
2019-03-19T15:33:17.233Z,10.30
2019-03-19T15:35:45.661Z,10.40
2019-03-19T15:38:14.193Z,10.50
2019-03-19T15:40:43.004Z,10.50
2019-03-19T15:43:11.672Z,10.40
2019-03-19T15:45:40.351Z,10.40
2019-03-19T15:48:08.918Z,10.40
2019-03-19T15:50:41.113Z,10.50
2019-03-19T15:53:10.038Z,10.50
2019-03-19T15:55:38.913Z,10.50
2019-03-19T15:58:08.179Z,10.30
2019-03-19T16:00:37.422Z,10.30
2019-03-19T16:03:06.608Z,10.30
2019-03-19T16:05:43.425Z,10.40
2019-03-19T16:08:14.560Z,10.40
2019-03-19T16:10:43.087Z,10.50
2019-03-19T16:13:12.188Z,10.60
2019-03-19T16:15:40.781Z,10.80
2019-03-19T16:18:10.885Z,10.80
2019-03-19T16:20:39.421Z,10.80
2019-03-19T16:23:07.953Z,10.80
2019-03-19T16:25:37.266Z,10.70
2019-03-19T16:28:06.177Z,10.70
2019-03-19T16:30:35.817Z,10.60
2019-03-19T16:33:06.078Z,10.60
2019-03-19T16:35:35.226Z,10.60
2019-03-19T16:38:04.877Z,10.60
2019-03-19T16:40:33.697Z,10.50
2019-03-19T16:43:04.974Z,10.50
2019-03-19T16:45:34.387Z,10.50
2019-03-19T16:48:05.407Z,10.40
2019-03-19T16:50:35.034Z,10.40
2019-03-19T16:53:06.200Z,10.30
2019-03-19T16:55:35.567Z,10.30
2019-03-19T16:58:04.956Z,10.20
2019-03-19T17:00:35.017Z,10.20
2019-03-19T17:03:04.058Z,10.10
2019-03-19T17:05:32.972Z,10.00
2019-03-19T17:08:01.743Z,10.00
2019-03-19T17:10:34.173Z,9.90
2019-03-19T17:13:02.835Z,9.90
2019-03-19T17:15:31.454Z,9.80
2019-03-19T17:18:19.389Z,9.70
2019-03-19T17:20:48.043Z,9.70
2019-03-19T17:23:19.612Z,9.60
2019-03-19T17:25:48.166Z,9.60
2019-03-19T17:28:22.406Z,9.50
2019-03-19T17:30:46.804Z,9.50
2019-03-19T17:33:18.066Z,9.40
2019-03-19T17:35:46.712Z,9.20
2019-03-19T17:38:15.225Z,9.10
2019-03-19T17:40:43.663Z,8.90
2019-03-19T17:43:12.170Z,8.80
2019-03-19T17:45:40.624Z,8.60
2019-03-19T17:48:16.097Z,8.40
2019-03-19T17:50:42.198Z,8.30
2019-03-19T17:53:11.419Z,8.10
2019-03-19T17:55:39.919Z,7.90
2019-03-19T17:58:08.475Z,7.60
2019-03-19T18:00:44.276Z,7.50
2019-03-19T18:03:21.698Z,7.30
2019-03-19T18:05:50.215Z,7.10
2019-03-19T18:08:23.748Z,7.10
2019-03-19T18:10:52.194Z,7.00
2019-03-19T18:13:40.150Z,6.90
2019-03-19T18:16:08.603Z,6.90
2019-03-19T18:18:39.871Z,6.70
2019-03-19T18:21:28.303Z,6.70
2019-03-19T18:24:23.704Z,6.60
2019-03-19T18:26:52.137Z,6.60
2019-03-19T18:29:20.608Z,6.60
2019-03-19T18:31:49.047Z,6.60
2019-03-19T18:34:19.199Z,6.60
2019-03-19T18:36:47.806Z,6.60
2019-03-19T18:39:16.229Z,6.60
2019-03-19T18:41:44.966Z,6.60
2019-03-19T18:44:15.723Z,6.50
2019-03-19T18:46:44.611Z,6.50
2019-03-19T18:49:15.419Z,6.50
2019-03-19T18:51:44.344Z,6.40
2019-03-19T18:54:14.765Z,6.40
2019-03-19T18:56:43.841Z,6.30
2019-03-19T18:59:14.019Z,6.30
2019-03-19T19:01:44.985Z,6.20
2019-03-19T19:04:14.702Z,6.20
2019-03-19T19:06:43.662Z,6.10
2019-03-19T19:09:14.789Z,6.10
2019-03-19T19:11:43.921Z,6.10
2019-03-19T19:14:58.989Z,6.10
2019-03-19T19:17:09.468Z,6.00
2019-03-19T19:19:50.109Z,6.00
2019-03-19T19:22:18.895Z,5.90
2019-03-19T19:24:50.048Z,5.70
2019-03-19T19:27:19.744Z,5.60
2019-03-19T19:29:49.156Z,5.50
2019-03-19T19:32:19.415Z,5.30
2019-03-19T19:34:49.824Z,5.20
2019-03-19T19:37:18.902Z,5.10
2019-03-19T19:39:49.795Z,5.00
2019-03-19T19:42:19.651Z,4.90
2019-03-19T19:44:49.873Z,4.80
2019-03-19T19:47:20.371Z,4.60
2019-03-19T19:49:57.040Z,4.60
2019-03-19T19:52:25.486Z,4.40
2019-03-19T19:54:53.955Z,4.30
2019-03-19T19:57:22.385Z,4.20
2019-03-19T19:59:51.046Z,4.10
2019-03-19T20:02:20.031Z,4.00
2019-03-19T20:04:49.364Z,3.90
2019-03-19T20:07:32.915Z,3.90
2019-03-19T20:10:09.190Z,3.90
2019-03-19T20:12:40.997Z,3.80
2019-03-19T20:18:12.206Z,3.80
2019-03-19T20:21:02.148Z,3.70
2019-03-19T20:23:39.395Z,3.60
2019-03-19T20:26:07.835Z,3.50
2019-03-19T20:28:37.261Z,3.30
2019-03-19T20:31:05.718Z,3.20
2019-03-19T20:33:37.144Z,3.00
2019-03-19T20:36:05.645Z,3.00
2019-03-19T20:38:35.393Z,3.00
2019-03-19T20:41:03.944Z,2.90
2019-03-19T20:43:35.094Z,2.90
2019-03-19T20:46:03.617Z,2.80
2019-03-19T20:48:32.174Z,2.70
2019-03-19T20:51:06.694Z,2.70
2019-03-19T20:53:35.165Z,2.60
2019-03-19T20:56:13.793Z,2.60
2019-03-19T20:58:49.406Z,2.50
2019-03-19T21:01:17.851Z,2.50
2019-03-19T21:03:55.509Z,2.40
2019-03-19T21:06:24.001Z,2.40
2019-03-19T21:08:52.455Z,2.30
2019-03-19T21:11:20.880Z,2.20
2019-03-19T21:13:50.280Z,2.20
2019-03-19T21:16:22.038Z,2.10
2019-03-19T21:18:53.465Z,2.00
2019-03-19T21:21:21.927Z,1.90
2019-03-19T21:23:50.358Z,1.90
2019-03-19T21:26:18.798Z,1.90
2019-03-19T21:28:47.247Z,1.90
2019-03-19T21:31:15.697Z,1.90
2019-03-19T21:33:51.444Z,1.90
2019-03-19T21:36:17.386Z,1.70
2019-03-19T21:38:45.848Z,1.60
2019-03-19T21:41:14.281Z,1.60
2019-03-19T21:43:45.445Z,1.50
2019-03-19T21:46:14.120Z,1.60
2019-03-19T21:48:42.579Z,1.50
2019-03-19T21:51:11.194Z,1.50
2019-03-19T21:53:39.642Z,1.50
2019-03-19T21:56:08.078Z,1.50
2019-03-19T21:58:37.654Z,1.50
2019-03-19T22:01:06.179Z,1.40
2019-03-19T22:03:34.697Z,1.40
2019-03-19T22:06:03.163Z,1.40
2019-03-19T22:08:31.621Z,1.30
2019-03-19T22:11:00.102Z,1.20
2019-03-19T22:13:28.514Z,1.10
2019-03-19T22:15:56.947Z,1.10
2019-03-19T22:18:28.413Z,1.10
2019-03-19T22:20:56.839Z,1.00
2019-03-19T22:23:26.290Z,0.90
2019-03-19T22:25:54.726Z,0.90
2019-03-19T22:28:25.816Z,0.80
2019-03-19T22:30:54.238Z,0.80
2019-03-19T22:33:23.263Z,0.80
2019-03-19T22:35:51.930Z,0.80
2019-03-19T22:38:21.663Z,0.80
2019-03-19T22:40:50.217Z,0.80
2019-03-19T22:43:21.434Z,0.70
2019-03-19T22:45:49.865Z,0.70
2019-03-19T22:48:18.496Z,0.70
2019-03-19T22:50:46.930Z,0.60
2019-03-19T22:53:18.085Z,0.60
2019-03-19T22:55:46.596Z,0.50
2019-03-19T22:58:15.040Z,0.40
2019-03-19T23:00:47.590Z,0.40
2019-03-19T23:03:18.730Z,0.50
2019-03-19T23:05:47.281Z,0.40
2019-03-19T23:08:15.854Z,0.40
2019-03-19T23:10:44.382Z,0.40
2019-03-19T23:13:13.222Z,0.40
2019-03-19T23:15:43.220Z,0.30
2019-03-19T23:18:11.814Z,0.30
2019-03-19T23:20:40.289Z,0.30
2019-03-19T23:23:08.709Z,0.20
2019-03-19T23:25:37.189Z,0.20
2019-03-19T23:28:05.687Z,0.10
2019-03-19T23:30:34.134Z,0.00
2019-03-19T23:33:02.538Z,0.00
2019-03-19T23:35:32.244Z,0.00
2019-03-19T23:38:00.722Z,-0.10
2019-03-19T23:40:31.817Z,-0.10
2019-03-19T23:43:00.300Z,-0.10
2019-03-19T23:45:28.780Z,-0.10
2019-03-19T23:47:57.211Z,-0.10
2019-03-19T23:50:28.596Z,-0.20
2019-03-19T23:52:57.038Z,-0.20
2019-03-19T23:55:27.143Z,-0.20
2019-03-19T23:57:55.594Z,-0.10
